Time;durP1;ratioP1;P1;durP2;ratioP2;P2;SDS_P1;SDS_P2;PMS_P1;PMS_P2;Temp;Humidity;BMP_temperature;BMP_pressure;BME280_temperature;BME280_humidity;BME280_pressure;Samples;Min_cycle;Max_cycle;Signal;HPM_P1;HPM_P2
2022/11/07 00:01:16;;;;;;;17.10;7.00;;;9.90;99.90;;;;;;4910262;29;20025;-79
2022/11/07 00:03:42;;;;;;;10.55;6.05;;;9.90;99.90;;;;;;4911019;29;20033;-70
2022/11/07 00:06:08;;;;;;;14.05;6.75;;;9.90;99.90;;;;;;4909881;29;20029;-78
2022/11/07 00:08:34;;;;;;;14.82;5.35;;;9.90;99.90;;;;;;4909638;29;20056;-77
2022/11/07 00:11:00;;;;;;;13.15;5.93;;;9.90;99.90;;;;;;4892134;29;20068;-77
2022/11/07 00:13:27;;;;;;;11.43;5.93;;;10.10;99.90;;;;;;4909255;29;20036;-76
2022/11/07 00:16:01;;;;;;;12.50;6.43;;;10.00;99.90;;;;;;4909318;29;20040;-75
2022/11/07 00:18:26;;;;;;;14.20;5.07;;;10.00;99.90;;;;;;4892304;29;20043;-74
2022/11/07 00:20:52;;;;;;;12.38;5.68;;;10.00;99.90;;;;;;4893780;29;20060;-77
2022/11/07 00:23:19;;;;;;;14.70;6.22;;;10.00;99.90;;;;;;4885992;29;20064;-76
2022/11/07 00:25:44;;;;;;;12.15;6.20;;;10.10;99.90;;;;;;4890523;29;20104;-80
2022/11/07 00:28:10;;;;;;;10.60;5.63;;;10.00;99.90;;;;;;4890686;29;20041;-74
2022/11/07 00:30:35;;;;;;;16.48;5.90;;;10.00;99.90;;;;;;4891643;29;20085;-73
2022/11/07 00:33:02;;;;;;;12.00;6.55;;;10.10;99.90;;;;;;4891398;29;20069;-76
2022/11/07 00:35:27;;;;;;;12.93;5.97;;;10.10;99.90;;;;;;4890309;29;20025;-74
2022/11/07 00:37:55;;;;;;;13.13;6.28;;;10.20;99.90;;;;;;4874343;29;20028;-75
2022/11/07 00:40:21;;;;;;;9.60;5.47;;;10.10;99.90;;;;;;4891109;29;20132;-73
2022/11/07 00:42:46;;;;;;;13.40;5.72;;;10.10;99.90;;;;;;4889443;29;20067;-77
2022/11/07 00:45:12;;;;;;;11.32;6.65;;;10.10;99.90;;;;;;4890209;29;20045;-76
2022/11/07 00:47:38;;;;;;;16.63;7.18;;;10.20;99.90;;;;;;4873278;29;20052;-77
2022/11/07 00:50:05;;;;;;;15.48;6.57;;;10.20;99.90;;;;;;4873564;29;20025;-77
2022/11/07 00:52:30;;;;;;;16.83;6.65;;;10.20;99.90;;;;;;4873165;29;20101;-76
2022/11/07 00:54:56;;;;;;;13.43;6.68;;;10.20;99.90;;;;;;4890064;29;20059;-78
2022/11/07 00:57:22;;;;;;;15.93;6.78;;;10.20;99.90;;;;;;4873400;29;20051;-73
2022/11/07 00:59:48;;;;;;;12.80;6.65;;;10.20;99.90;;;;;;4890130;29;20045;-75
2022/11/07 01:02:14;;;;;;;12.93;5.88;;;10.30;99.90;;;;;;4873183;29;20060;-73
2022/11/07 01:07:23;;;;;;;14.93;6.53;;;10.30;99.90;;;;;;4890930;29;20040;-77
2022/11/07 01:09:49;;;;;;;12.32;5.47;;;10.30;99.90;;;;;;4872934;29;20029;-75
2022/11/07 01:12:15;;;;;;;19.13;7.00;;;10.30;99.90;;;;;;4890004;29;20053;-77
2022/11/07 01:14:40;;;;;;;10.25;5.32;;;10.30;99.90;;;;;;4872796;29;20137;-73
2022/11/07 01:17:06;;;;;;;14.23;5.15;;;10.30;99.90;;;;;;4889787;29;20040;-72
2022/11/07 01:19:32;;;;;;;15.02;6.90;;;10.40;99.90;;;;;;4890223;29;20105;-76
2022/11/07 01:22:04;;;;;;;14.80;6.50;;;10.40;99.90;;;;;;4890467;29;20033;-79
2022/11/07 01:24:29;;;;;;;17.38;6.65;;;10.40;99.90;;;;;;4905383;29;20574;-75
2022/11/07 01:26:55;;;;;;;16.75;6.55;;;10.40;99.90;;;;;;4908471;29;20036;-76
2022/11/07 01:29:21;;;;;;;14.30;6.72;;;10.50;99.90;;;;;;4892013;29;20409;-77
2022/11/07 01:31:47;;;;;;;15.80;6.03;;;10.40;99.90;;;;;;4891644;29;20035;-74
2022/11/07 01:34:12;;;;;;;19.73;7.13;;;10.50;99.90;;;;;;4908309;29;20048;-75
2022/11/07 01:36:38;;;;;;;13.57;5.97;;;10.50;99.90;;;;;;4907651;29;20029;-75
2022/11/07 01:39:05;;;;;;;14.98;6.32;;;10.50;99.90;;;;;;4906958;29;20051;-77
2022/11/07 01:41:33;;;;;;;13.80;6.93;;;10.50;99.90;;;;;;4908288;29;20036;-75
2022/11/07 01:44:05;;;;;;;12.75;6.05;;;10.60;99.90;;;;;;4908614;29;20083;-75
2022/11/07 01:46:34;;;;;;;14.80;5.70;;;10.60;99.90;;;;;;4891418;29;20058;-78
2022/11/07 01:49:18;;;;;;;11.63;5.57;;;10.50;99.90;;;;;;4907623;29;20040;-77
2022/11/07 01:51:52;;;;;;;19.75;6.47;;;10.60;99.90;;;;;;4891011;29;20346;-76
2022/11/07 01:54:23;;;;;;;15.23;5.22;;;10.60;99.90;;;;;;4907987;29;20107;-77
2022/11/07 01:56:54;;;;;;;18.45;5.95;;;10.60;99.90;;;;;;4906954;29;20032;-79
2022/11/07 01:59:24;;;;;;;11.45;4.78;;;10.60;99.90;;;;;;4908687;29;20099;-73
2022/11/07 02:02:03;;;;;;;8.88;4.78;;;10.70;99.90;;;;;;4907304;29;20044;-78
2022/11/07 02:04:30;;;;;;;9.25;4.70;;;10.70;99.90;;;;;;4908487;29;20041;-77
2022/11/07 02:07:03;;;;;;;17.83;5.63;;;10.70;99.90;;;;;;4891289;29;20474;-74
2022/11/07 02:09:29;;;;;;;10.07;5.07;;;10.70;99.90;;;;;;4891333;29;20033;-77
2022/11/07 02:11:59;;;;;;;11.35;5.05;;;10.70;99.90;;;;;;4907592;29;20028;-76
2022/11/07 02:14:26;;;;;;;12.10;5.15;;;10.70;99.90;;;;;;4907820;29;20025;-76
2022/11/07 02:16:59;;;;;;;19.83;5.22;;;10.80;99.90;;;;;;4906672;29;20040;-78
2022/11/07 02:19:35;;;;;;;10.88;4.85;;;10.80;99.90;;;;;;4907489;29;20096;-76
2022/11/07 02:22:33;;;;;;;13.55;5.18;;;10.80;99.90;;;;;;4907956;29;20112;-78
2022/11/07 02:25:02;;;;;;;18.77;5.32;;;10.80;99.90;;;;;;4883827;29;20056;-76
2022/11/07 02:27:30;;;;;;;16.88;5.15;;;10.80;99.90;;;;;;4907840;29;20028;-72
2022/11/07 02:30:12;;;;;;;15.70;4.82;;;10.90;99.90;;;;;;4908117;29;20032;-74
2022/11/07 02:32:38;;;;;;;15.88;4.85;;;10.90;99.90;;;;;;4908151;29;20025;-73
2022/11/07 02:35:26;;;;;;;12.63;5.30;;;10.90;99.90;;;;;;4891454;29;20393;-74
2022/11/07 02:37:53;;;;;;;10.57;5.47;;;10.90;99.90;;;;;;4890584;29;20150;-75
2022/11/07 02:40:19;;;;;;;14.55;5.40;;;10.90;99.90;;;;;;4907508;29;20056;-74
2022/11/07 02:42:45;;;;;;;14.13;5.65;;;10.90;99.90;;;;;;4909093;29;20033;-81
2022/11/07 02:45:25;;;;;;;19.30;5.65;;;10.90;99.90;;;;;;4908681;29;20033;-75
2022/11/07 02:47:51;;;;;;;25.42;5.35;;;10.90;99.90;;;;;;4910810;29;20055;-73
2022/11/07 02:50:17;;;;;;;10.30;5.15;;;10.90;99.90;;;;;;4894701;29;20035;-74
2022/11/07 02:52:43;;;;;;;16.70;5.90;;;10.90;99.90;;;;;;4910983;29;20032;-80
2022/11/07 02:55:10;;;;;;;13.82;5.70;;;10.90;99.90;;;;;;4894215;29;20119;-77
2022/11/07 02:57:36;;;;;;;19.17;5.70;;;10.80;99.90;;;;;;4910923;29;20530;-78
2022/11/07 03:00:03;;;;;;;14.80;5.95;;;10.90;99.90;;;;;;4910393;29;20072;-75
2022/11/07 03:02:28;;;;;;;12.32;5.15;;;10.90;99.90;;;;;;4893487;29;20040;-74
2022/11/07 03:04:54;;;;;;;15.02;5.10;;;10.90;99.90;;;;;;4910999;29;20024;-73
2022/11/07 03:07:20;;;;;;;7.05;3.63;;;11.00;99.90;;;;;;4911476;29;20059;-78
2022/11/07 03:09:46;;;;;;;9.55;4.38;;;11.00;99.90;;;;;;4894656;29;20037;-80
2022/11/07 03:12:14;;;;;;;13.75;3.97;;;11.00;99.90;;;;;;4910997;29;20040;-78
2022/11/07 03:14:40;;;;;;;11.23;3.17;;;11.00;99.90;;;;;;4910488;29;20043;-74
2022/11/07 03:17:05;;;;;;;11.05;3.20;;;11.10;99.90;;;;;;4911424;29;20119;-79
2022/11/07 03:19:31;;;;;;;13.65;3.53;;;11.10;99.90;;;;;;4894399;29;20100;-81
2022/11/07 03:21:57;;;;;;;8.25;3.15;;;11.10;99.90;;;;;;4893317;29;20025;-80
2022/11/07 03:24:22;;;;;;;15.02;3.95;;;11.10;99.90;;;;;;4893791;29;20386;-76
2022/11/07 03:26:48;;;;;;;10.93;3.08;;;11.10;99.90;;;;;;4910404;29;20025;-77
2022/11/07 03:29:14;;;;;;;11.77;3.28;;;11.10;99.90;;;;;;4909164;29;20052;-79
2022/11/07 03:31:40;;;;;;;8.85;3.22;;;11.10;99.90;;;;;;4894014;29;20028;-75
2022/11/07 03:34:05;;;;;;;11.65;3.35;;;11.10;99.90;;;;;;4893970;29;20028;-80
2022/11/07 03:36:32;;;;;;;10.93;3.15;;;11.10;99.90;;;;;;4910473;29;20073;-75
2022/11/07 03:38:58;;;;;;;15.63;3.25;;;11.10;99.90;;;;;;4911028;29;20037;-74
2022/11/07 03:41:24;;;;;;;9.75;3.03;;;11.10;99.90;;;;;;4893391;29;20032;-78
2022/11/07 03:43:50;;;;;;;11.30;3.85;;;11.10;99.90;;;;;;4910448;29;20489;-75
2022/11/07 03:46:16;;;;;;;7.88;3.22;;;11.10;99.90;;;;;;4910487;29;20064;-75
2022/11/07 03:48:42;;;;;;;7.85;3.60;;;11.10;99.90;;;;;;4910407;29;20037;-75
2022/11/07 03:51:08;;;;;;;12.80;3.53;;;11.10;99.90;;;;;;4910941;29;20032;-75
2022/11/07 03:53:35;;;;;;;16.65;4.80;;;11.10;99.90;;;;;;4910754;29;20089;-77
2022/11/07 03:56:06;;;;;;;15.10;4.35;;;11.20;99.90;;;;;;4894046;29;20032;-75
2022/11/07 03:58:32;;;;;;;12.95;4.25;;;11.10;99.90;;;;;;4893019;29;20076;-73
2022/11/07 04:00:57;;;;;;;14.48;4.93;;;11.10;99.90;;;;;;4892247;29;20362;-77
2022/11/07 04:03:23;;;;;;;31.20;5.50;;;11.00;99.90;;;;;;4892699;29;20053;-74
2022/11/07 04:05:49;;;;;;;16.30;5.85;;;11.10;99.90;;;;;;4910097;29;20052;-77
2022/11/07 04:08:14;;;;;;;12.50;5.05;;;11.10;99.90;;;;;;4908403;29;20133;-72
2022/11/07 04:10:40;;;;;;;16.75;5.45;;;11.10;99.90;;;;;;4892995;29;20041;-79
2022/11/07 04:18:36;;;;;;;;;;;11.00;99.90;;;;;;4909662;29;20131;-79
2022/11/07 04:21:02;;;;;;;12.95;4.82;;;11.00;99.90;;;;;;4908232;29;20256;-76
2022/11/07 04:23:28;;;;;;;23.02;5.13;;;11.00;99.90;;;;;;4908660;29;20077;-73
2022/11/07 04:28:38;;;;;;;15.13;5.35;;;11.10;99.90;;;;;;4909517;29;20044;-76
2022/11/07 04:31:04;;;;;;;21.42;5.97;;;11.10;99.90;;;;;;4908849;29;20033;-77
2022/11/07 04:33:29;;;;;;;15.20;4.85;;;11.10;99.90;;;;;;4907830;29;20039;-73
2022/11/07 04:35:55;;;;;;;15.35;5.05;;;11.10;99.90;;;;;;4908765;29;20107;-74
2022/11/07 04:38:21;;;;;;;17.08;4.30;;;11.10;99.90;;;;;;4908789;29;20039;-77
2022/11/07 04:40:56;;;;;;;14.43;4.47;;;11.10;99.90;;;;;;4909136;29;20028;-75
2022/11/07 04:43:24;;;;;;;14.85;4.40;;;11.10;99.90;;;;;;4908835;29;20041;-76
2022/11/07 04:45:51;;;;;;;15.75;4.97;;;11.10;99.90;;;;;;4892068;29;20152;-72
2022/11/07 04:48:17;;;;;;;18.50;5.20;;;11.10;99.90;;;;;;4909180;29;20033;-74
2022/11/07 04:50:43;;;;;;;13.15;4.97;;;11.10;99.90;;;;;;4908566;29;20397;-78
2022/11/07 04:53:13;;;;;;;13.75;4.93;;;11.10;99.90;;;;;;4891813;29;20021;-80
2022/11/07 04:55:43;;;;;;;13.07;4.95;;;11.10;99.90;;;;;;4892251;29;20035;-83
2022/11/07 04:58:09;;;;;;;12.25;5.00;;;11.00;99.90;;;;;;4891427;29;20031;-77
2022/11/07 05:00:35;;;;;;;19.98;4.35;;;11.00;99.90;;;;;;4909599;29;20092;-77
2022/11/07 05:03:01;;;;;;;15.35;4.22;;;11.10;99.90;;;;;;4909567;29;20028;-75
2022/11/07 05:05:27;;;;;;;16.73;3.63;;;11.10;99.90;;;;;;4891696;29;20068;-77
2022/11/07 05:07:53;;;;;;;12.88;3.97;;;11.10;99.90;;;;;;4908861;29;20080;-78
2022/11/07 05:10:24;;;;;;;17.83;7.00;;;11.10;99.90;;;;;;4908579;29;20028;-76
2022/11/07 05:12:51;;;;;;;20.35;7.18;;;11.10;99.90;;;;;;4908979;29;20043;-77
2022/11/07 05:15:17;;;;;;;21.17;6.07;;;11.20;99.90;;;;;;4909471;29;20036;-74
2022/11/07 05:17:43;;;;;;;16.67;4.78;;;11.20;99.90;;;;;;4907830;29;20084;-75
2022/11/07 05:20:27;;;;;;;13.95;4.55;;;11.20;99.90;;;;;;4907754;29;20072;-75
2022/11/07 05:25:53;;;;;;;16.35;4.63;;;11.20;99.90;;;;;;4909001;29;20068;-84
2022/11/07 05:28:23;;;;;;;19.42;4.45;;;11.20;99.90;;;;;;4891547;29;20096;-72
2022/11/07 05:30:50;;;;;;;16.05;3.95;;;11.30;99.90;;;;;;4891536;29;20024;-79
2022/11/07 05:33:17;;;;;;;20.23;4.25;;;11.30;99.90;;;;;;4908395;29;20033;-76
2022/11/07 05:35:44;;;;;;;18.85;4.30;;;11.30;99.90;;;;;;4908654;29;20123;-78
2022/11/07 05:38:10;;;;;;;15.20;4.20;;;11.40;99.90;;;;;;4909008;29;20492;-72
2022/11/07 05:40:37;;;;;;;17.65;3.97;;;11.30;99.90;;;;;;4907975;29;20037;-76
2022/11/07 05:43:06;;;;;;;12.52;3.33;;;11.40;99.90;;;;;;4908040;29;20032;-76
2022/11/07 05:45:36;;;;;;;10.57;3.42;;;11.40;99.90;;;;;;4908141;29;20033;-77
2022/11/07 05:48:04;;;;;;;20.92;4.10;;;11.40;99.90;;;;;;4907996;29;20052;-74
2022/11/07 05:50:30;;;;;;;12.52;3.67;;;11.40;99.90;;;;;;4891072;29;20043;-77
2022/11/07 05:52:56;;;;;;;20.30;3.35;;;11.40;99.90;;;;;;4890921;29;20057;-74
2022/11/07 05:55:23;;;;;;;11.77;4.15;;;11.40;99.90;;;;;;4907604;29;20048;-74
2022/11/07 05:57:49;;;;;;;14.10;4.13;;;11.40;99.90;;;;;;4908176;29;20093;-77
2022/11/07 06:00:16;;;;;;;14.73;3.70;;;11.40;99.90;;;;;;4889706;29;20036;-78
2022/11/07 06:02:42;;;;;;;19.65;4.00;;;11.50;99.90;;;;;;4905588;29;20057;-77
2022/11/07 06:05:09;;;;;;;12.15;3.75;;;11.50;99.90;;;;;;4890948;29;20040;-72
2022/11/07 06:07:35;;;;;;;18.20;4.30;;;11.50;99.90;;;;;;4907221;29;20028;-74
2022/11/07 06:10:01;;;;;;;14.80;4.07;;;11.50;99.90;;;;;;4907412;29;20075;-75
2022/11/07 06:12:27;;;;;;;26.50;3.53;;;11.50;99.90;;;;;;4908142;29;20041;-74
2022/11/07 06:14:53;;;;;;;18.77;3.70;;;11.50;99.90;;;;;;4908316;29;20028;-74
2022/11/07 06:17:18;;;;;;;12.52;3.63;;;11.50;99.90;;;;;;4908008;29;20099;-75
2022/11/07 06:19:44;;;;;;;25.90;4.53;;;11.50;99.90;;;;;;4907799;29;20032;-75
2022/11/07 06:22:10;;;;;;;16.67;4.85;;;11.50;99.90;;;;;;4892413;29;20040;-75
2022/11/07 06:24:35;;;;;;;15.73;4.65;;;11.50;99.90;;;;;;4911317;29;20087;-75
2022/11/07 06:27:01;;;;;;;18.20;4.55;;;11.50;99.90;;;;;;4911136;29;20033;-76
2022/11/07 06:29:27;;;;;;;18.02;4.55;;;11.50;99.90;;;;;;4911155;29;20132;-80
2022/11/07 06:31:52;;;;;;;15.70;5.18;;;11.50;99.90;;;;;;4895049;29;20065;-76
2022/11/07 06:34:18;;;;;;;17.33;5.40;;;11.50;99.90;;;;;;4912306;29;20025;-76
2022/11/07 06:36:44;;;;;;;16.42;5.32;;;11.50;99.90;;;;;;4892566;29;20258;-73
2022/11/07 06:39:09;;;;;;;15.63;5.97;;;11.50;99.90;;;;;;4893682;29;20060;-75
2022/11/07 06:41:35;;;;;;;28.02;9.98;;;11.40;99.90;;;;;;4890438;29;20039;-77
2022/11/07 06:44:01;;;;;;;14.40;5.05;;;11.40;99.90;;;;;;4890994;29;20061;-80
2022/11/07 06:46:27;;;;;;;16.98;5.00;;;11.40;99.90;;;;;;4904502;29;20115;-77
2022/11/07 06:48:53;;;;;;;22.48;5.90;;;11.40;99.90;;;;;;4907909;29;20067;-78
2022/11/07 06:51:19;;;;;;;16.90;4.88;;;11.40;99.90;;;;;;4891700;29;20075;-74
2022/11/07 06:53:45;;;;;;;11.63;4.40;;;11.40;99.90;;;;;;4894654;29;20034;-76
2022/11/07 06:56:15;;;;;;;19.38;5.18;;;11.40;99.90;;;;;;4908497;29;20068;-76
2022/11/07 06:58:40;;;;;;;13.10;3.92;;;11.30;99.90;;;;;;4890609;29;20112;-72
2022/11/07 07:01:12;;;;;;;15.70;4.30;;;11.30;99.90;;;;;;4909361;29;20063;-76
2022/11/07 07:03:41;;;;;;;15.02;4.80;;;11.40;99.90;;;;;;4890146;29;20544;-75
2022/11/07 07:06:11;;;;;;;13.40;5.28;;;11.40;99.90;;;;;;4888076;29;20028;-75
2022/11/07 07:08:38;;;;;;;13.75;4.75;;;11.40;99.90;;;;;;4903762;29;20032;-73
2022/11/07 07:11:07;;;;;;;20.30;4.85;;;11.40;99.90;;;;;;4889254;29;20121;-80
2022/11/07 07:13:33;;;;;;;12.57;5.30;;;11.40;99.90;;;;;;4891651;29;20025;-76
2022/11/07 07:15:59;;;;;;;11.93;4.70;;;11.40;99.90;;;;;;4893199;29;20031;-72
2022/11/07 07:18:26;;;;;;;15.48;5.32;;;11.40;99.90;;;;;;4907982;29;20041;-74
2022/11/07 07:21:06;;;;;;;26.20;5.75;;;11.50;99.90;;;;;;4910007;29;20056;-75
2022/11/07 07:23:33;;;;;;;17.77;5.22;;;11.50;99.90;;;;;;4887254;29;20056;-74
2022/11/07 07:26:00;;;;;;;15.57;5.70;;;11.60;99.90;;;;;;4909929;29;20059;-76
2022/11/07 07:28:26;;;;;;;19.42;5.28;;;11.60;99.90;;;;;;4910324;29;20167;-77
2022/11/07 07:30:53;;;;;;;25.10;5.55;;;11.60;99.90;;;;;;4899335;29;20025;-78
2022/11/07 07:33:20;;;;;;;17.00;5.45;;;11.60;99.90;;;;;;4891750;29;20043;-77
2022/11/07 07:35:45;;;;;;;21.67;5.80;;;11.60;99.90;;;;;;4908794;29;20028;-75
2022/11/07 07:38:12;;;;;;;18.75;5.53;;;11.70;99.90;;;;;;4909252;29;20036;-76
2022/11/07 07:40:38;;;;;;;20.67;5.28;;;11.60;99.90;;;;;;4892764;29;20044;-78
2022/11/07 07:43:03;;;;;;;14.85;5.10;;;11.60;99.90;;;;;;4892990;29;20039;-77
2022/11/07 07:45:29;;;;;;;16.38;4.90;;;11.70;99.90;;;;;;4907783;29;20044;-81
2022/11/07 07:48:01;;;;;;;15.32;5.30;;;11.70;99.90;;;;;;4892439;29;20112;-79
2022/11/07 07:50:27;;;;;;;21.65;5.97;;;11.70;99.90;;;;;;4910256;29;20469;-78
2022/11/07 07:52:57;;;;;;;21.95;5.22;;;11.70;99.90;;;;;;4911003;29;20028;-76
2022/11/07 07:55:23;;;;;;;14.48;4.40;;;11.70;99.90;;;;;;4893096;29;20065;-77
2022/11/07 07:57:49;;;;;;;14.00;4.80;;;11.70;99.90;;;;;;4893843;29;20104;-79
2022/11/07 08:00:15;;;;;;;20.45;5.43;;;11.80;99.90;;;;;;4909790;29;20040;-74
2022/11/07 08:02:42;;;;;;;11.00;4.55;;;11.80;99.90;;;;;;4908822;29;20033;-78
2022/11/07 08:05:10;;;;;;;19.55;4.30;;;11.80;99.90;;;;;;4910283;29;20128;-77
2022/11/07 08:07:35;;;;;;;16.67;5.00;;;11.90;99.90;;;;;;4893001;29;20084;-79
2022/11/07 08:10:01;;;;;;;12.43;3.88;;;11.90;99.90;;;;;;4910288;29;20029;-81
2022/11/07 08:12:27;;;;;;;15.82;4.75;;;12.00;99.90;;;;;;4909925;29;20371;-74
2022/11/07 08:14:52;;;;;;;12.32;4.60;;;12.00;99.90;;;;;;4905846;29;20036;-80
2022/11/07 08:17:18;;;;;;;10.63;3.80;;;12.10;99.90;;;;;;4891264;29;20036;-76
2022/11/07 08:19:44;;;;;;;14.85;3.88;;;12.10;99.90;;;;;;4890590;29;20120;-75
2022/11/07 08:22:10;;;;;;;23.00;5.22;;;12.10;99.90;;;;;;4908943;29;20057;-81
2022/11/07 08:24:35;;;;;;;20.30;5.30;;;12.20;99.90;;;;;;4867137;29;20046;-78
2022/11/07 08:27:01;;;;;;;15.15;4.40;;;12.30;99.90;;;;;;4881604;29;20044;-74
2022/11/07 08:29:27;;;;;;;15.77;5.05;;;12.20;99.90;;;;;;4874671;29;20095;-80
2022/11/07 08:31:52;;;;;;;17.30;5.15;;;12.30;99.90;;;;;;4890157;29;20047;-77
2022/11/07 08:34:18;;;;;;;21.27;5.13;;;12.30;99.90;;;;;;4874289;29;20029;-82
2022/11/07 08:36:44;;;;;;;16.65;5.80;;;12.40;99.90;;;;;;4887724;29;20041;-78
2022/11/07 08:39:10;;;;;;;17.88;5.47;;;12.40;99.90;;;;;;4875762;29;20122;-75
2022/11/07 08:41:35;;;;;;;20.30;5.22;;;12.40;99.90;;;;;;4888932;29;20029;-74
2022/11/07 08:44:01;;;;;;;13.90;4.90;;;12.50;99.90;;;;;;4888582;29;20049;-74
2022/11/07 08:46:27;;;;;;;14.35;5.13;;;12.40;99.90;;;;;;4873111;29;20033;-74
2022/11/07 08:48:52;;;;;;;14.13;4.57;;;12.40;99.90;;;;;;4890480;29;20086;-76
2022/11/07 08:51:18;;;;;;;14.35;4.50;;;12.30;99.90;;;;;;4873824;29;20470;-77
2022/11/07 08:53:44;;;;;;;21.92;4.65;;;12.40;99.90;;;;;;4890357;29;20029;-75
2022/11/07 08:56:09;;;;;;;15.55;4.90;;;12.40;99.90;;;;;;4889940;29;20056;-71
2022/11/07 08:58:36;;;;;;;24.27;5.28;;;12.30;99.90;;;;;;4890696;29;20040;-75
2022/11/07 09:01:07;;;;;;;20.90;4.82;;;12.40;99.90;;;;;;4890858;29;20143;-75
2022/11/07 09:03:37;;;;;;;21.00;4.63;;;12.40;99.90;;;;;;4871463;29;20038;-73
2022/11/07 09:06:04;;;;;;;20.05;5.68;;;12.40;99.90;;;;;;4870442;29;20189;-76
2022/11/07 09:08:31;;;;;;;14.35;4.93;;;12.50;99.90;;;;;;4889306;29;20053;-78
2022/11/07 09:11:03;;;;;;;15.85;5.00;;;12.60;99.90;;;;;;4872022;29;20028;-78
2022/11/07 09:13:30;;;;;;;13.30;4.38;;;12.60;99.90;;;;;;4890209;29;20028;-74
2022/11/07 09:15:58;;;;;;;18.10;4.45;;;12.70;99.90;;;;;;4871942;29;20025;-74
2022/11/07 09:18:28;;;;;;;21.02;4.90;;;12.70;99.90;;;;;;4869034;29;20191;-72
2022/11/07 09:20:56;;;;;;;21.80;4.68;;;12.70;99.90;;;;;;4874502;29;20096;-76
2022/11/07 09:23:24;;;;;;;28.95;5.13;;;12.80;99.90;;;;;;4871536;29;20064;-73
2022/11/07 09:25:49;;;;;;;17.17;4.90;;;12.80;99.90;;;;;;4871688;29;20049;-73
2022/11/07 09:28:15;;;;;;;14.13;4.72;;;12.80;99.90;;;;;;4872690;29;20036;-74
2022/11/07 09:30:41;;;;;;;19.77;4.90;;;12.80;99.90;;;;;;4872561;29;20471;-77
2022/11/07 09:33:07;;;;;;;10.10;4.20;;;12.80;99.90;;;;;;4872640;29;20060;-74
2022/11/07 09:35:32;;;;;;;13.93;4.40;;;12.80;99.90;;;;;;4885332;29;20037;-75
2022/11/07 09:37:58;;;;;;;18.95;4.30;;;12.80;99.90;;;;;;4873488;29;20033;-73
2022/11/07 09:40:55;;;;;;;16.67;4.82;;;12.80;99.90;;;;;;4889004;29;20169;-75
2022/11/07 09:43:24;;;;;;;14.55;3.63;;;12.80;99.90;;;;;;4890501;29;20032;-75
2022/11/07 09:45:56;;;;;;;21.75;4.35;;;12.80;99.90;;;;;;4890122;29;20039;-74
2022/11/07 09:48:24;;;;;;;20.00;4.10;;;12.80;99.90;;;;;;4889206;29;20052;-76
2022/11/07 09:50:51;;;;;;;19.15;4.68;;;12.90;99.90;;;;;;4890074;29;20042;-73
2022/11/07 09:53:41;;;;;;;13.98;4.40;;;12.80;99.90;;;;;;4890412;29;20025;-76
2022/11/07 09:56:11;;;;;;;26.00;5.60;;;12.80;99.90;;;;;;4891879;29;20037;-74
2022/11/07 09:58:42;;;;;;;19.92;5.30;;;12.80;99.90;;;;;;4893111;29;20033;-76
2022/11/07 10:01:18;;;;;;;16.42;4.40;;;12.80;99.90;;;;;;4891568;29;20036;-75
2022/11/07 10:03:44;;;;;;;23.33;4.72;;;12.90;99.90;;;;;;4891671;29;20033;-76
2022/11/07 10:06:19;;;;;;;25.17;5.00;;;12.80;99.90;;;;;;4873686;29;20041;-76
2022/11/07 10:08:48;;;;;;;22.45;4.75;;;12.80;99.90;;;;;;4891605;29;20029;-75
2022/11/07 10:11:33;;;;;;;16.70;4.47;;;12.80;99.90;;;;;;4891138;29;20021;-77
2022/11/07 10:14:17;;;;;;;16.08;5.15;;;12.80;99.90;;;;;;4875088;29;20112;-76
2022/11/07 10:16:58;;;;;;;16.02;4.13;;;12.80;99.90;;;;;;4887559;29;20025;-76
2022/11/07 10:19:26;;;;;;;15.68;5.20;;;12.80;99.90;;;;;;4889419;29;20041;-76
2022/11/07 10:22:05;;;;;;;20.42;4.50;;;12.80;99.90;;;;;;4889433;29;20036;-77
2022/11/07 10:24:42;;;;;;;17.17;5.72;;;12.90;99.90;;;;;;4908160;29;20055;-74
2022/11/07 10:27:10;;;;;;;23.60;7.00;;;12.90;99.90;;;;;;4893325;29;20778;-75
2022/11/07 10:29:49;;;;;;;20.05;6.53;;;12.90;99.90;;;;;;4896810;29;20485;-72
2022/11/07 10:32:24;;;;;;;22.83;5.32;;;12.90;99.90;;;;;;4901285;29;20036;-77
2022/11/07 10:35:23;;;;;;;20.55;4.78;;;12.90;99.90;;;;;;4906511;29;20101;-75
2022/11/07 10:37:54;;;;;;;13.48;4.75;;;12.90;99.90;;;;;;4906143;29;20157;-73
2022/11/07 10:40:20;;;;;;;14.45;4.88;;;12.90;99.90;;;;;;4890077;29;20032;-75
2022/11/07 10:42:47;;;;;;;17.77;5.05;;;12.90;99.90;;;;;;4891017;29;20036;-73
2022/11/07 10:45:15;;;;;;;17.17;4.03;;;12.90;99.90;;;;;;4893006;29;20143;-75
2022/11/07 10:47:41;;;;;;;17.88;4.70;;;12.90;99.90;;;;;;4894196;29;20028;-74
2022/11/07 10:50:19;;;;;;;15.23;4.60;;;12.90;99.90;;;;;;4908645;29;20045;-77
2022/11/07 10:53:16;;;;;;;15.38;4.80;;;13.00;99.90;;;;;;4905374;29;20025;-76
2022/11/07 10:55:45;;;;;;;15.63;4.63;;;13.10;99.90;;;;;;4902036;29;20033;-75
2022/11/07 10:58:23;;;;;;;17.38;5.35;;;13.10;99.90;;;;;;4891511;29;20025;-77
2022/11/07 11:01:09;;;;;;;16.85;5.30;;;13.20;99.90;;;;;;4908013;29;20044;-77
2022/11/07 11:03:40;;;;;;;20.65;5.18;;;13.30;99.90;;;;;;4906163;29;20063;-74
2022/11/07 11:06:29;;;;;;;17.42;5.50;;;13.30;99.90;;;;;;4906033;29;20071;-75
2022/11/07 11:08:54;;;;;;;22.08;5.05;;;13.30;99.90;;;;;;4908180;29;20058;-79
2022/11/07 11:11:20;;;;;;;14.88;4.85;;;13.30;99.90;;;;;;4892022;29;20033;-73
2022/11/07 11:13:46;;;;;;;20.80;5.22;;;13.30;99.90;;;;;;4907488;29;20124;-76
2022/11/07 11:16:12;;;;;;;17.60;4.57;;;13.20;99.90;;;;;;4902071;29;20025;-72
2022/11/07 11:18:47;;;;;;;16.83;4.47;;;13.20;99.90;;;;;;4886992;29;20040;-73
2022/11/07 11:21:20;;;;;;;17.98;4.25;;;13.20;99.90;;;;;;4907180;29;20123;-76
2022/11/07 11:23:46;;;;;;;17.73;3.80;;;13.20;99.90;;;;;;4907932;29;20134;-76
2022/11/07 11:26:28;;;;;;;17.25;4.05;;;13.30;99.90;;;;;;4893364;29;20024;-72
2022/11/07 11:28:56;;;;;;;18.52;3.90;;;13.20;99.90;;;;;;4909934;29;20485;-77
2022/11/07 11:31:42;;;;;;;14.75;3.50;;;13.20;99.90;;;;;;4892414;29;20032;-76
2022/11/07 11:34:27;;;;;;;16.65;4.05;;;13.20;99.90;;;;;;4909481;29;20087;-73
2022/11/07 11:37:07;;;;;;;18.40;3.85;;;13.20;99.90;;;;;;4892028;29;20111;-78
2022/11/07 11:40:17;;;;;;;12.52;3.67;;;13.20;99.90;;;;;;4904695;29;20084;-75
2022/11/07 11:43:05;;;;;;;15.82;4.15;;;13.20;99.90;;;;;;4851270;29;20042;-76
2022/11/07 11:45:45;;;;;;;8.25;3.42;;;13.20;99.90;;;;;;4905322;29;20028;-75
2022/11/07 11:48:43;;;;;;;20.98;4.18;;;13.20;99.90;;;;;;4910302;29;20033;-76
2022/11/07 11:51:30;;;;;;;10.77;2.92;;;13.20;99.90;;;;;;4898712;29;20048;-73
2022/11/07 11:53:56;;;;;;;14.70;3.72;;;13.20;99.90;;;;;;4896875;29;20025;-76
2022/11/07 11:56:48;;;;;;;15.10;3.70;;;13.20;99.90;;;;;;4909663;29;20454;-73
2022/11/07 11:59:35;;;;;;;12.57;3.90;;;13.20;99.90;;;;;;4894289;29;20040;-75
2022/11/07 12:02:46;;;;;;;12.60;3.42;;;13.10;99.90;;;;;;4910909;29;20061;-70
2022/11/07 12:05:36;;;;;;;13.38;3.33;;;13.10;99.90;;;;;;4893928;29;20033;-74
2022/11/07 12:08:19;;;;;;;10.77;3.08;;;13.10;99.90;;;;;;4909672;29;20066;-76
2022/11/07 12:10:57;;;;;;;15.63;3.60;;;13.10;99.90;;;;;;4892412;29;20039;-75
2022/11/07 12:13:31;;;;;;;13.98;3.45;;;13.10;99.90;;;;;;4910236;29;20037;-77
2022/11/07 12:16:37;;;;;;;12.18;3.53;;;13.10;99.90;;;;;;4910447;29;20035;-78
2022/11/07 12:19:12;;;;;;;13.95;4.15;;;13.00;99.90;;;;;;4845642;29;20631;-72
2022/11/07 12:21:59;;;;;;;18.17;4.10;;;13.00;99.90;;;;;;4884791;29;20025;-79
2022/11/07 12:24:50;;;;;;;19.90;4.38;;;12.90;99.90;;;;;;4905823;29;20045;-76
2022/11/07 12:27:21;;;;;;;18.85;4.47;;;12.70;99.90;;;;;;4900647;29;20328;-78
2022/11/07 12:30:09;;;;;;;18.42;5.13;;;12.60;99.90;;;;;;4899333;29;20043;-76
2022/11/07 12:32:40;;;;;;;15.82;5.82;;;12.50;99.90;;;;;;4887001;29;20028;-77
2022/11/07 12:35:18;;;;;;;14.77;4.57;;;12.40;99.90;;;;;;4907348;29;20029;-74
2022/11/07 12:38:00;;;;;;;19.23;4.95;;;12.30;99.90;;;;;;4907257;29;20029;-76
2022/11/07 12:40:53;;;;;;;20.75;4.72;;;12.30;99.90;;;;;;4902402;29;20033;-77
2022/11/07 12:43:38;;;;;;;20.73;5.03;;;12.20;99.90;;;;;;4882022;29;20032;-77
2022/11/07 12:46:22;;;;;;;19.25;5.00;;;12.20;99.90;;;;;;4905695;29;20044;-77
2022/11/07 12:49:06;;;;;;;17.60;5.30;;;12.20;99.90;;;;;;4891079;29;20033;-77
2022/11/07 12:51:41;;;;;;;16.83;5.13;;;12.20;99.90;;;;;;4902250;29;20039;-76
2022/11/07 12:54:25;;;;;;;23.73;5.22;;;12.20;99.90;;;;;;4891153;29;20036;-77
2022/11/07 12:56:52;;;;;;;23.30;5.68;;;12.20;99.90;;;;;;4908993;29;20033;-78
2022/11/07 12:59:28;;;;;;;26.45;6.40;;;12.20;99.90;;;;;;4889988;29;20045;-79
2022/11/07 13:02:14;;;;;;;22.83;5.82;;;12.30;99.90;;;;;;4891958;29;20174;-77
2022/11/07 13:05:07;;;;;;;22.27;5.68;;;12.30;99.90;;;;;;4908322;29;20029;-77
2022/11/07 13:07:39;;;;;;;18.90;5.18;;;12.30;99.90;;;;;;4907965;29;20065;-77